sensor_id;sensor_type;location;lat;lon;timestamp;P1;durP1;ratioP1;P2;durP2;ratioP2
5428;SDS011;2737;52.386;9.980;2023-04-08T00:01:51;8.50;;;6.87;;
5428;SDS011;2737;52.386;9.980;2023-04-08T00:04:18;9.80;;;7.23;;
5428;SDS011;2737;52.386;9.980;2023-04-08T00:06:45;11.63;;;5.70;;
5428;SDS011;2737;52.386;9.980;2023-04-08T00:09:13;10.80;;;6.33;;
5428;SDS011;2737;52.386;9.980;2023-04-08T00:11:40;8.90;;;6.17;;
5428;SDS011;2737;52.386;9.980;2023-04-08T00:14:07;34.53;;;13.30;;
5428;SDS011;2737;52.386;9.980;2023-04-08T00:16:35;15.30;;;7.17;;
5428;SDS011;2737;52.386;9.980;2023-04-08T00:19:02;9.83;;;5.90;;
5428;SDS011;2737;52.386;9.980;2023-04-08T00:21:30;11.60;;;5.57;;
5428;SDS011;2737;52.386;9.980;2023-04-08T00:23:57;11.03;;;5.57;;
5428;SDS011;2737;52.386;9.980;2023-04-08T00:26:26;11.03;;;5.93;;
5428;SDS011;2737;52.386;9.980;2023-04-08T00:28:53;8.30;;;5.60;;
5428;SDS011;2737;52.386;9.980;2023-04-08T00:31:20;9.43;;;5.50;;
5428;SDS011;2737;52.386;9.980;2023-04-08T00:33:47;9.67;;;5.57;;
5428;SDS011;2737;52.386;9.980;2023-04-08T00:36:14;7.57;;;5.27;;
5428;SDS011;2737;52.386;9.980;2023-04-08T00:38:41;8.10;;;5.30;;
5428;SDS011;2737;52.386;9.980;2023-04-08T00:41:08;11.13;;;5.87;;
5428;SDS011;2737;52.386;9.980;2023-04-08T00:43:37;8.33;;;5.80;;
5428;SDS011;2737;52.386;9.980;2023-04-08T00:46:04;8.30;;;5.43;;
5428;SDS011;2737;52.386;9.980;2023-04-08T00:48:31;11.30;;;5.60;;
5428;SDS011;2737;52.386;9.980;2023-04-08T00:50:59;10.03;;;5.83;;
5428;SDS011;2737;52.386;9.980;2023-04-08T00:53:26;7.50;;;4.60;;
5428;SDS011;2737;52.386;9.980;2023-04-08T00:55:53;7.47;;;4.17;;
5428;SDS011;2737;52.386;9.980;2023-04-08T00:58:20;8.90;;;5.70;;
5428;SDS011;2737;52.386;9.980;2023-04-08T01:00:49;8.47;;;5.60;;
5428;SDS011;2737;52.386;9.980;2023-04-08T01:03:23;7.60;;;5.00;;
5428;SDS011;2737;52.386;9.980;2023-04-08T01:05:58;8.90;;;5.30;;
5428;SDS011;2737;52.386;9.980;2023-04-08T01:08:32;8.60;;;5.20;;
5428;SDS011;2737;52.386;9.980;2023-04-08T01:11:02;8.70;;;5.63;;
5428;SDS011;2737;52.386;9.980;2023-04-08T01:13:33;7.23;;;4.77;;
5428;SDS011;2737;52.386;9.980;2023-04-08T01:16:07;10.20;;;5.70;;
5428;SDS011;2737;52.386;9.980;2023-04-08T01:18:37;8.30;;;5.47;;
5428;SDS011;2737;52.386;9.980;2023-04-08T01:21:06;10.43;;;6.17;;
5428;SDS011;2737;52.386;9.980;2023-04-08T01:23:37;10.60;;;4.87;;
5428;SDS011;2737;52.386;9.980;2023-04-08T01:26:10;7.87;;;5.40;;
5428;SDS011;2737;52.386;9.980;2023-04-08T01:28:46;10.23;;;6.40;;
5428;SDS011;2737;52.386;9.980;2023-04-08T01:31:16;10.90;;;6.30;;
5428;SDS011;2737;52.386;9.980;2023-04-08T01:33:44;12.60;;;6.00;;
5428;SDS011;2737;52.386;9.980;2023-04-08T01:36:13;10.90;;;6.13;;
5428;SDS011;2737;52.386;9.980;2023-04-08T01:38:42;9.43;;;5.77;;
5428;SDS011;2737;52.386;9.980;2023-04-08T01:41:11;11.80;;;6.70;;
5428;SDS011;2737;52.386;9.980;2023-04-08T01:43:38;8.40;;;5.83;;
5428;SDS011;2737;52.386;9.980;2023-04-08T01:46:07;15.40;;;7.17;;
5428;SDS011;2737;52.386;9.980;2023-04-08T01:48:36;10.77;;;6.13;;
5428;SDS011;2737;52.386;9.980;2023-04-08T01:51:04;12.10;;;7.13;;
5428;SDS011;2737;52.386;9.980;2023-04-08T01:53:31;10.90;;;6.77;;
5428;SDS011;2737;52.386;9.980;2023-04-08T01:56:01;11.20;;;6.03;;
5428;SDS011;2737;52.386;9.980;2023-04-08T01:58:35;12.17;;;7.07;;
5428;SDS011;2737;52.386;9.980;2023-04-08T02:01:05;13.43;;;6.37;;
5428;SDS011;2737;52.386;9.980;2023-04-08T02:03:36;10.37;;;6.33;;
5428;SDS011;2737;52.386;9.980;2023-04-08T02:06:06;11.53;;;6.80;;
5428;SDS011;2737;52.386;9.980;2023-04-08T02:08:33;9.30;;;6.07;;
5428;SDS011;2737;52.386;9.980;2023-04-08T02:11:01;13.00;;;6.57;;
5428;SDS011;2737;52.386;9.980;2023-04-08T02:13:28;11.90;;;6.30;;
5428;SDS011;2737;52.386;9.980;2023-04-08T02:16:01;11.87;;;7.03;;
5428;SDS011;2737;52.386;9.980;2023-04-08T02:18:35;10.10;;;6.10;;
5428;SDS011;2737;52.386;9.980;2023-04-08T02:21:05;10.43;;;5.97;;
5428;SDS011;2737;52.386;9.980;2023-04-08T02:23:37;16.00;;;6.10;;
5428;SDS011;2737;52.386;9.980;2023-04-08T02:26:06;11.07;;;6.80;;
5428;SDS011;2737;52.386;9.980;2023-04-08T02:28:38;13.40;;;6.77;;
5428;SDS011;2737;52.386;9.980;2023-04-08T02:31:07;13.10;;;6.90;;
5428;SDS011;2737;52.386;9.980;2023-04-08T02:33:37;15.53;;;6.70;;
5428;SDS011;2737;52.386;9.980;2023-04-08T02:36:05;11.97;;;7.13;;
5428;SDS011;2737;52.386;9.980;2023-04-08T02:38:33;15.50;;;6.83;;
5428;SDS011;2737;52.386;9.980;2023-04-08T02:41:01;14.00;;;7.57;;
5428;SDS011;2737;52.386;9.980;2023-04-08T02:43:28;14.17;;;7.00;;
5428;SDS011;2737;52.386;9.980;2023-04-08T02:45:56;12.77;;;7.00;;
5428;SDS011;2737;52.386;9.980;2023-04-08T02:48:25;14.47;;;7.33;;
5428;SDS011;2737;52.386;9.980;2023-04-08T02:50:52;13.33;;;7.50;;
5428;SDS011;2737;52.386;9.980;2023-04-08T02:53:20;22.47;;;7.80;;
5428;SDS011;2737;52.386;9.980;2023-04-08T02:55:48;15.83;;;6.63;;
5428;SDS011;2737;52.386;9.980;2023-04-08T02:58:15;14.93;;;7.90;;
5428;SDS011;2737;52.386;9.980;2023-04-08T03:00:42;14.93;;;7.33;;
5428;SDS011;2737;52.386;9.980;2023-04-08T03:03:10;13.67;;;7.80;;
5428;SDS011;2737;52.386;9.980;2023-04-08T03:05:38;13.87;;;7.30;;
5428;SDS011;2737;52.386;9.980;2023-04-08T03:08:05;11.70;;;6.93;;
5428;SDS011;2737;52.386;9.980;2023-04-08T03:10:32;13.70;;;7.47;;
5428;SDS011;2737;52.386;9.980;2023-04-08T03:12:59;13.47;;;6.63;;
5428;SDS011;2737;52.386;9.980;2023-04-08T03:15:26;14.27;;;7.43;;
5428;SDS011;2737;52.386;9.980;2023-04-08T03:17:53;12.33;;;7.30;;
5428;SDS011;2737;52.386;9.980;2023-04-08T03:20:20;16.57;;;6.90;;
5428;SDS011;2737;52.386;9.980;2023-04-08T03:22:49;12.40;;;7.30;;
5428;SDS011;2737;52.386;9.980;2023-04-08T03:25:16;17.10;;;8.37;;
5428;SDS011;2737;52.386;9.980;2023-04-08T03:27:43;16.47;;;8.40;;
5428;SDS011;2737;52.386;9.980;2023-04-08T03:30:10;12.43;;;7.43;;
5428;SDS011;2737;52.386;9.980;2023-04-08T03:32:37;14.50;;;7.97;;
5428;SDS011;2737;52.386;9.980;2023-04-08T03:35:04;14.03;;;8.17;;
5428;SDS011;2737;52.386;9.980;2023-04-08T03:37:32;13.77;;;7.80;;
5428;SDS011;2737;52.386;9.980;2023-04-08T03:40:00;14.13;;;8.47;;
5428;SDS011;2737;52.386;9.980;2023-04-08T03:42:28;16.63;;;9.20;;
5428;SDS011;2737;52.386;9.980;2023-04-08T03:44:56;16.63;;;9.10;;
5428;SDS011;2737;52.386;9.980;2023-04-08T03:47:23;16.90;;;9.00;;
5428;SDS011;2737;52.386;9.980;2023-04-08T03:49:51;20.10;;;9.70;;
5428;SDS011;2737;52.386;9.980;2023-04-08T03:52:18;20.40;;;11.50;;
5428;SDS011;2737;52.386;9.980;2023-04-08T03:54:45;19.67;;;10.30;;
5428;SDS011;2737;52.386;9.980;2023-04-08T03:57:14;24.07;;;10.87;;
5428;SDS011;2737;52.386;9.980;2023-04-08T03:59:41;21.50;;;10.47;;
5428;SDS011;2737;52.386;9.980;2023-04-08T04:02:08;24.77;;;10.17;;
5428;SDS011;2737;52.386;9.980;2023-04-08T04:04:35;19.20;;;10.00;;
5428;SDS011;2737;52.386;9.980;2023-04-08T04:07:02;23.00;;;10.77;;
5428;SDS011;2737;52.386;9.980;2023-04-08T04:09:29;23.53;;;11.77;;
5428;SDS011;2737;52.386;9.980;2023-04-08T04:11:56;25.87;;;11.47;;
5428;SDS011;2737;52.386;9.980;2023-04-08T04:14:24;23.13;;;11.23;;
5428;SDS011;2737;52.386;9.980;2023-04-08T04:16:51;18.53;;;10.30;;
5428;SDS011;2737;52.386;9.980;2023-04-08T04:19:18;25.47;;;12.07;;
5428;SDS011;2737;52.386;9.980;2023-04-08T04:21:45;25.17;;;11.30;;
5428;SDS011;2737;52.386;9.980;2023-04-08T04:24:12;22.40;;;10.70;;
5428;SDS011;2737;52.386;9.980;2023-04-08T04:26:39;21.70;;;10.77;;
5428;SDS011;2737;52.386;9.980;2023-04-08T04:29:06;22.20;;;12.00;;
5428;SDS011;2737;52.386;9.980;2023-04-08T04:31:35;24.47;;;12.30;;
5428;SDS011;2737;52.386;9.980;2023-04-08T04:34:02;31.83;;;13.00;;
5428;SDS011;2737;52.386;9.980;2023-04-08T04:36:29;36.13;;;13.70;;
5428;SDS011;2737;52.386;9.980;2023-04-08T04:38:57;24.40;;;12.17;;
5428;SDS011;2737;52.386;9.980;2023-04-08T04:41:24;24.60;;;11.90;;
5428;SDS011;2737;52.386;9.980;2023-04-08T04:43:51;27.53;;;12.60;;
5428;SDS011;2737;52.386;9.980;2023-04-08T04:46:21;23.83;;;12.47;;
5428;SDS011;2737;52.386;9.980;2023-04-08T04:48:53;26.20;;;13.20;;
5428;SDS011;2737;52.386;9.980;2023-04-08T04:51:20;30.63;;;12.20;;
5428;SDS011;2737;52.386;9.980;2023-04-08T04:53:47;27.40;;;12.47;;
5428;SDS011;2737;52.386;9.980;2023-04-08T04:56:14;29.40;;;12.50;;
5428;SDS011;2737;52.386;9.980;2023-04-08T04:58:41;23.47;;;12.10;;
5428;SDS011;2737;52.386;9.980;2023-04-08T05:01:10;23.33;;;11.93;;
5428;SDS011;2737;52.386;9.980;2023-04-08T05:03:37;28.10;;;13.10;;
5428;SDS011;2737;52.386;9.980;2023-04-08T05:06:06;23.93;;;12.83;;
5428;SDS011;2737;52.386;9.980;2023-04-08T05:08:33;22.33;;;11.57;;
5428;SDS011;2737;52.386;9.980;2023-04-08T05:11:00;27.00;;;12.47;;
5428;SDS011;2737;52.386;9.980;2023-04-08T05:13:27;25.43;;;11.50;;
5428;SDS011;2737;52.386;9.980;2023-04-08T05:15:54;34.03;;;11.70;;
5428;SDS011;2737;52.386;9.980;2023-04-08T05:18:21;23.80;;;12.30;;
5428;SDS011;2737;52.386;9.980;2023-04-08T05:20:48;26.80;;;12.80;;
5428;SDS011;2737;52.386;9.980;2023-04-08T05:23:16;18.70;;;11.30;;
5428;SDS011;2737;52.386;9.980;2023-04-08T05:25:43;23.50;;;10.80;;
5428;SDS011;2737;52.386;9.980;2023-04-08T05:28:10;21.07;;;11.90;;
5428;SDS011;2737;52.386;9.980;2023-04-08T05:30:37;22.77;;;10.90;;
5428;SDS011;2737;52.386;9.980;2023-04-08T05:33:04;20.13;;;10.83;;
5428;SDS011;2737;52.386;9.980;2023-04-08T05:35:31;25.70;;;11.17;;
5428;SDS011;2737;52.386;9.980;2023-04-08T05:37:58;20.50;;;11.37;;
5428;SDS011;2737;52.386;9.980;2023-04-08T05:40:27;20.90;;;11.10;;
5428;SDS011;2737;52.386;9.980;2023-04-08T05:42:54;21.70;;;11.40;;
5428;SDS011;2737;52.386;9.980;2023-04-08T05:45:21;21.70;;;11.00;;
5428;SDS011;2737;52.386;9.980;2023-04-08T05:47:48;20.20;;;11.23;;
5428;SDS011;2737;52.386;9.980;2023-04-08T05:50:15;23.80;;;11.70;;
5428;SDS011;2737;52.386;9.980;2023-04-08T05:52:42;21.90;;;10.93;;
5428;SDS011;2737;52.386;9.980;2023-04-08T05:55:10;18.93;;;10.80;;
5428;SDS011;2737;52.386;9.980;2023-04-08T05:57:39;19.10;;;10.83;;
5428;SDS011;2737;52.386;9.980;2023-04-08T06:00:07;18.70;;;10.30;;
5428;SDS011;2737;52.386;9.980;2023-04-08T06:02:35;22.03;;;11.57;;
5428;SDS011;2737;52.386;9.980;2023-04-08T06:05:02;21.17;;;11.47;;
5428;SDS011;2737;52.386;9.980;2023-04-08T06:07:30;21.43;;;11.47;;
5428;SDS011;2737;52.386;9.980;2023-04-08T06:09:58;16.83;;;10.13;;
5428;SDS011;2737;52.386;9.980;2023-04-08T06:12:25;30.10;;;10.60;;
5428;SDS011;2737;52.386;9.980;2023-04-08T06:14:54;19.60;;;11.57;;
5428;SDS011;2737;52.386;9.980;2023-04-08T06:17:21;23.07;;;11.73;;
5428;SDS011;2737;52.386;9.980;2023-04-08T06:19:48;22.03;;;10.53;;
5428;SDS011;2737;52.386;9.980;2023-04-08T06:22:15;22.40;;;11.97;;
5428;SDS011;2737;52.386;9.980;2023-04-08T06:24:42;29.00;;;12.27;;
5428;SDS011;2737;52.386;9.980;2023-04-08T06:27:09;19.57;;;10.57;;
5428;SDS011;2737;52.386;9.980;2023-04-08T06:29:37;22.80;;;11.13;;
5428;SDS011;2737;52.386;9.980;2023-04-08T06:32:05;25.60;;;12.70;;
5428;SDS011;2737;52.386;9.980;2023-04-08T06:34:32;23.43;;;12.00;;
5428;SDS011;2737;52.386;9.980;2023-04-08T06:36:59;24.30;;;12.27;;
5428;SDS011;2737;52.386;9.980;2023-04-08T06:39:26;22.27;;;11.90;;
5428;SDS011;2737;52.386;9.980;2023-04-08T06:41:53;19.93;;;11.17;;
5428;SDS011;2737;52.386;9.980;2023-04-08T06:44:22;24.07;;;11.83;;
5428;SDS011;2737;52.386;9.980;2023-04-08T06:46:49;24.03;;;12.00;;
5428;SDS011;2737;52.386;9.980;2023-04-08T06:49:17;21.87;;;12.00;;
5428;SDS011;2737;52.386;9.980;2023-04-08T06:51:44;23.30;;;12.93;;
5428;SDS011;2737;52.386;9.980;2023-04-08T06:54:11;24.50;;;12.13;;
5428;SDS011;2737;52.386;9.980;2023-04-08T06:56:38;26.00;;;14.00;;
5428;SDS011;2737;52.386;9.980;2023-04-08T06:59:05;24.30;;;12.50;;
5428;SDS011;2737;52.386;9.980;2023-04-08T07:01:32;31.50;;;13.40;;
5428;SDS011;2737;52.386;9.980;2023-04-08T07:03:59;22.80;;;12.50;;
5428;SDS011;2737;52.386;9.980;2023-04-08T07:06:28;26.90;;;12.60;;
5428;SDS011;2737;52.386;9.980;2023-04-08T07:08:55;26.37;;;12.63;;
5428;SDS011;2737;52.386;9.980;2023-04-08T07:11:22;25.93;;;12.50;;
5428;SDS011;2737;52.386;9.980;2023-04-08T07:13:49;24.73;;;11.97;;
5428;SDS011;2737;52.386;9.980;2023-04-08T07:16:17;23.40;;;12.13;;
5428;SDS011;2737;52.386;9.980;2023-04-08T07:18:44;28.60;;;12.20;;
5428;SDS011;2737;52.386;9.980;2023-04-08T07:21:11;25.10;;;12.70;;
5428;SDS011;2737;52.386;9.980;2023-04-08T07:23:41;22.97;;;11.70;;
5428;SDS011;2737;52.386;9.980;2023-04-08T07:26:08;25.63;;;12.10;;
5428;SDS011;2737;52.386;9.980;2023-04-08T07:28:35;26.93;;;12.33;;
5428;SDS011;2737;52.386;9.980;2023-04-08T07:31:08;23.10;;;12.80;;
5428;SDS011;2737;52.386;9.980;2023-04-08T07:33:36;22.80;;;11.50;;
5428;SDS011;2737;52.386;9.980;2023-04-08T07:36:03;24.27;;;13.33;;
5428;SDS011;2737;52.386;9.980;2023-04-08T07:38:30;23.30;;;12.27;;
5428;SDS011;2737;52.386;9.980;2023-04-08T07:40:59;22.50;;;13.40;;
5428;SDS011;2737;52.386;9.980;2023-04-08T07:43:26;29.43;;;13.07;;
5428;SDS011;2737;52.386;9.980;2023-04-08T07:45:58;30.43;;;12.50;;
5428;SDS011;2737;52.386;9.980;2023-04-08T07:48:26;26.40;;;12.90;;
5428;SDS011;2737;52.386;9.980;2023-04-08T07:50:54;24.10;;;12.70;;
5428;SDS011;2737;52.386;9.980;2023-04-08T07:53:21;24.60;;;13.23;;
5428;SDS011;2737;52.386;9.980;2023-04-08T07:55:48;24.10;;;11.73;;
5428;SDS011;2737;52.386;9.980;2023-04-08T07:58:17;28.27;;;12.67;;
5428;SDS011;2737;52.386;9.980;2023-04-08T08:00:44;24.63;;;12.83;;
5428;SDS011;2737;52.386;9.980;2023-04-08T08:03:11;26.20;;;13.03;;
5428;SDS011;2737;52.386;9.980;2023-04-08T08:05:38;28.97;;;14.07;;
5428;SDS011;2737;52.386;9.980;2023-04-08T08:08:05;28.20;;;13.40;;
5428;SDS011;2737;52.386;9.980;2023-04-08T08:10:32;27.40;;;13.70;;
5428;SDS011;2737;52.386;9.980;2023-04-08T08:12:59;31.10;;;13.93;;
5428;SDS011;2737;52.386;9.980;2023-04-08T08:15:28;29.83;;;14.67;;
5428;SDS011;2737;52.386;9.980;2023-04-08T08:17:55;36.20;;;13.43;;
5428;SDS011;2737;52.386;9.980;2023-04-08T08:20:22;29.40;;;14.67;;
5428;SDS011;2737;52.386;9.980;2023-04-08T08:22:49;29.80;;;13.60;;
5428;SDS011;2737;52.386;9.980;2023-04-08T08:25:16;22.23;;;12.20;;
5428;SDS011;2737;52.386;9.980;2023-04-08T08:27:43;27.10;;;12.97;;
5428;SDS011;2737;52.386;9.980;2023-04-08T08:30:11;22.67;;;12.33;;
5428;SDS011;2737;52.386;9.980;2023-04-08T08:32:39;33.60;;;12.07;;
5428;SDS011;2737;52.386;9.980;2023-04-08T08:35:07;23.70;;;11.60;;
5428;SDS011;2737;52.386;9.980;2023-04-08T08:37:34;29.03;;;12.60;;
5428;SDS011;2737;52.386;9.980;2023-04-08T08:40:01;21.63;;;12.00;;
5428;SDS011;2737;52.386;9.980;2023-04-08T08:42:29;24.90;;;12.30;;
5428;SDS011;2737;52.386;9.980;2023-04-08T08:44:56;26.43;;;11.30;;
5428;SDS011;2737;52.386;9.980;2023-04-08T08:47:23;26.33;;;12.10;;
5428;SDS011;2737;52.386;9.980;2023-04-08T08:49:52;23.03;;;10.50;;
5428;SDS011;2737;52.386;9.980;2023-04-08T08:52:19;24.20;;;12.37;;
5428;SDS011;2737;52.386;9.980;2023-04-08T08:54:46;25.17;;;13.40;;
5428;SDS011;2737;52.386;9.980;2023-04-08T08:57:16;24.17;;;11.87;;
5428;SDS011;2737;52.386;9.980;2023-04-08T08:59:44;26.00;;;12.00;;
5428;SDS011;2737;52.386;9.980;2023-04-08T09:02:22;25.20;;;12.70;;
5428;SDS011;2737;52.386;9.980;2023-04-08T09:04:56;28.77;;;13.90;;
5428;SDS011;2737;52.386;9.980;2023-04-08T09:07:25;25.13;;;11.93;;
5428;SDS011;2737;52.386;9.980;2023-04-08T09:09:53;25.00;;;12.50;;
5428;SDS011;2737;52.386;9.980;2023-04-08T09:12:22;23.53;;;13.00;;
5428;SDS011;2737;52.386;9.980;2023-04-08T09:14:50;26.77;;;11.87;;
5428;SDS011;2737;52.386;9.980;2023-04-08T09:17:30;26.07;;;12.57;;
5428;SDS011;2737;52.386;9.980;2023-04-08T09:20:07;27.83;;;12.13;;
5428;SDS011;2737;52.386;9.980;2023-04-08T09:25:22;27.93;;;11.73;;
5428;SDS011;2737;52.386;9.980;2023-04-08T09:27:50;24.13;;;12.50;;
5428;SDS011;2737;52.386;9.980;2023-04-08T09:30:18;21.20;;;11.80;;
5428;SDS011;2737;52.386;9.980;2023-04-08T09:32:46;24.33;;;12.80;;
5428;SDS011;2737;52.386;9.980;2023-04-08T09:35:16;23.63;;;11.70;;
5428;SDS011;2737;52.386;9.980;2023-04-08T09:37:43;21.70;;;11.37;;
5428;SDS011;2737;52.386;9.980;2023-04-08T09:40:12;24.17;;;12.13;;
5428;SDS011;2737;52.386;9.980;2023-04-08T09:42:43;24.23;;;11.77;;
5428;SDS011;2737;52.386;9.980;2023-04-08T09:45:12;30.10;;;11.87;;
5428;SDS011;2737;52.386;9.980;2023-04-08T09:47:43;26.30;;;13.40;;
5428;SDS011;2737;52.386;9.980;2023-04-08T09:50:23;22.50;;;11.50;;
5428;SDS011;2737;52.386;9.980;2023-04-08T09:52:56;25.20;;;11.83;;
5428;SDS011;2737;52.386;9.980;2023-04-08T09:55:27;23.00;;;13.10;;
5428;SDS011;2737;52.386;9.980;2023-04-08T09:58:00;19.33;;;11.30;;
5428;SDS011;2737;52.386;9.980;2023-04-08T10:00:32;26.97;;;12.80;;
5428;SDS011;2737;52.386;9.980;2023-04-08T10:03:05;27.77;;;13.87;;
5428;SDS011;2737;52.386;9.980;2023-04-08T10:05:38;20.73;;;11.83;;
5428;SDS011;2737;52.386;9.980;2023-04-08T10:08:07;25.07;;;12.70;;
5428;SDS011;2737;52.386;9.980;2023-04-08T10:10:35;18.40;;;11.00;;
5428;SDS011;2737;52.386;9.980;2023-04-08T10:13:05;25.23;;;12.10;;
5428;SDS011;2737;52.386;9.980;2023-04-08T10:15:33;25.90;;;12.70;;
5428;SDS011;2737;52.386;9.980;2023-04-08T10:21:02;21.10;;;10.57;;
5428;SDS011;2737;52.386;9.980;2023-04-08T10:26:28;19.20;;;10.97;;
5428;SDS011;2737;52.386;9.980;2023-04-08T10:29:11;22.13;;;11.30;;
5428;SDS011;2737;52.386;9.980;2023-04-08T10:31:56;24.70;;;11.60;;
5428;SDS011;2737;52.386;9.980;2023-04-08T10:34:25;22.23;;;11.87;;
5428;SDS011;2737;52.386;9.980;2023-04-08T10:36:54;18.30;;;10.77;;
5428;SDS011;2737;52.386;9.980;2023-04-08T10:39:23;23.57;;;11.10;;
5428;SDS011;2737;52.386;9.980;2023-04-08T10:41:52;21.27;;;11.40;;
5428;SDS011;2737;52.386;9.980;2023-04-08T10:44:20;20.10;;;11.40;;
5428;SDS011;2737;52.386;9.980;2023-04-08T10:46:49;17.87;;;10.53;;
5428;SDS011;2737;52.386;9.980;2023-04-08T10:49:17;21.90;;;12.03;;
5428;SDS011;2737;52.386;9.980;2023-04-08T10:51:46;20.70;;;11.10;;
5428;SDS011;2737;52.386;9.980;2023-04-08T10:54:15;24.90;;;12.67;;
5428;SDS011;2737;52.386;9.980;2023-04-08T10:56:44;26.93;;;13.53;;
5428;SDS011;2737;52.386;9.980;2023-04-08T10:59:12;21.77;;;12.60;;
5428;SDS011;2737;52.386;9.980;2023-04-08T11:01:42;23.73;;;12.03;;
5428;SDS011;2737;52.386;9.980;2023-04-08T11:04:10;23.00;;;12.10;;
5428;SDS011;2737;52.386;9.980;2023-04-08T11:06:38;24.13;;;12.17;;
5428;SDS011;2737;52.386;9.980;2023-04-08T11:09:07;24.00;;;12.23;;
5428;SDS011;2737;52.386;9.980;2023-04-08T11:11:35;25.20;;;13.30;;
5428;SDS011;2737;52.386;9.980;2023-04-08T11:14:03;24.43;;;12.57;;
5428;SDS011;2737;52.386;9.980;2023-04-08T11:16:31;24.43;;;11.93;;
5428;SDS011;2737;52.386;9.980;2023-04-08T11:19:00;25.50;;;12.83;;
5428;SDS011;2737;52.386;9.980;2023-04-08T11:21:28;25.20;;;12.17;;
5428;SDS011;2737;52.386;9.980;2023-04-08T11:23:56;21.00;;;11.40;;
5428;SDS011;2737;52.386;9.980;2023-04-08T11:26:24;34.20;;;12.33;;
5428;SDS011;2737;52.386;9.980;2023-04-08T11:28:53;18.33;;;10.77;;
5428;SDS011;2737;52.386;9.980;2023-04-08T11:31:21;20.80;;;11.47;;
5428;SDS011;2737;52.386;9.980;2023-04-08T11:33:48;25.00;;;12.53;;
5428;SDS011;2737;52.386;9.980;2023-04-08T11:36:19;23.37;;;11.40;;
5428;SDS011;2737;52.386;9.980;2023-04-08T11:38:46;22.97;;;12.30;;
5428;SDS011;2737;52.386;9.980;2023-04-08T11:41:14;23.33;;;11.00;;
5428;SDS011;2737;52.386;9.980;2023-04-08T11:43:52;21.43;;;11.47;;
5428;SDS011;2737;52.386;9.980;2023-04-08T11:46:20;22.30;;;11.50;;
5428;SDS011;2737;52.386;9.980;2023-04-08T11:48:58;28.37;;;12.10;;
5428;SDS011;2737;52.386;9.980;2023-04-08T11:51:26;19.40;;;11.17;;
5428;SDS011;2737;52.386;9.980;2023-04-08T11:53:53;20.67;;;10.97;;
5428;SDS011;2737;52.386;9.980;2023-04-08T11:56:20;23.50;;;12.20;;
5428;SDS011;2737;52.386;9.980;2023-04-08T11:58:48;23.80;;;12.20;;
5428;SDS011;2737;52.386;9.980;2023-04-08T12:01:17;23.70;;;11.23;;
5428;SDS011;2737;52.386;9.980;2023-04-08T12:03:57;26.23;;;11.83;;
5428;SDS011;2737;52.386;9.980;2023-04-08T12:06:25;24.53;;;12.40;;
5428;SDS011;2737;52.386;9.980;2023-04-08T12:08:53;25.83;;;12.27;;
5428;SDS011;2737;52.386;9.980;2023-04-08T12:11:21;26.33;;;12.17;;
5428;SDS011;2737;52.386;9.980;2023-04-08T12:13:48;28.33;;;13.23;;
5428;SDS011;2737;52.386;9.980;2023-04-08T12:16:18;24.27;;;13.57;;
5428;SDS011;2737;52.386;9.980;2023-04-08T12:18:45;24.60;;;12.30;;
5428;SDS011;2737;52.386;9.980;2023-04-08T12:21:12;27.10;;;13.77;;
5428;SDS011;2737;52.386;9.980;2023-04-08T12:23:40;26.63;;;12.57;;
5428;SDS011;2737;52.386;9.980;2023-04-08T12:26:07;27.67;;;12.90;;
5428;SDS011;2737;52.386;9.980;2023-04-08T12:28:34;27.50;;;13.50;;
5428;SDS011;2737;52.386;9.980;2023-04-08T12:31:01;26.53;;;12.93;;
5428;SDS011;2737;52.386;9.980;2023-04-08T12:33:30;28.50;;;13.03;;
5428;SDS011;2737;52.386;9.980;2023-04-08T12:35:57;26.47;;;12.27;;
5428;SDS011;2737;52.386;9.980;2023-04-08T12:38:24;28.00;;;13.13;;
5428;SDS011;2737;52.386;9.980;2023-04-08T12:40:52;26.63;;;14.33;;
5428;SDS011;2737;52.386;9.980;2023-04-08T12:43:19;27.97;;;13.37;;
5428;SDS011;2737;52.386;9.980;2023-04-08T12:45:47;27.93;;;12.40;;
5428;SDS011;2737;52.386;9.980;2023-04-08T12:48:15;29.97;;;14.03;;
5428;SDS011;2737;52.386;9.980;2023-04-08T12:50:43;27.97;;;14.10;;
5428;SDS011;2737;52.386;9.980;2023-04-08T12:53:10;23.00;;;12.90;;
5428;SDS011;2737;52.386;9.980;2023-04-08T12:55:37;26.87;;;12.63;;
5428;SDS011;2737;52.386;9.980;2023-04-08T12:58:04;28.30;;;14.07;;
5428;SDS011;2737;52.386;9.980;2023-04-08T13:00:31;30.63;;;13.73;;
5428;SDS011;2737;52.386;9.980;2023-04-08T13:03:01;26.40;;;12.80;;
5428;SDS011;2737;52.386;9.980;2023-04-08T13:05:29;26.87;;;12.70;;
5428;SDS011;2737;52.386;9.980;2023-04-08T13:07:57;27.80;;;14.27;;
5428;SDS011;2737;52.386;9.980;2023-04-08T13:10:24;30.47;;;13.47;;
5428;SDS011;2737;52.386;9.980;2023-04-08T13:12:51;27.50;;;13.27;;
5428;SDS011;2737;52.386;9.980;2023-04-08T13:15:18;24.20;;;12.20;;
5428;SDS011;2737;52.386;9.980;2023-04-08T13:17:46;28.87;;;14.27;;
5428;SDS011;2737;52.386;9.980;2023-04-08T13:20:13;24.23;;;12.20;;
5428;SDS011;2737;52.386;9.980;2023-04-08T13:22:40;24.27;;;11.60;;
5428;SDS011;2737;52.386;9.980;2023-04-08T13:25:08;56.97;;;13.97;;
5428;SDS011;2737;52.386;9.980;2023-04-08T13:27:35;24.90;;;13.07;;
5428;SDS011;2737;52.386;9.980;2023-04-08T13:30:03;27.90;;;12.37;;
5428;SDS011;2737;52.386;9.980;2023-04-08T13:32:30;24.70;;;12.47;;
5428;SDS011;2737;52.386;9.980;2023-04-08T13:34:57;30.30;;;13.07;;
5428;SDS011;2737;52.386;9.980;2023-04-08T13:37:24;25.47;;;12.40;;
5428;SDS011;2737;52.386;9.980;2023-04-08T13:39:52;32.57;;;11.93;;
5428;SDS011;2737;52.386;9.980;2023-04-08T13:42:21;25.97;;;12.80;;
5428;SDS011;2737;52.386;9.980;2023-04-08T13:44:49;22.63;;;11.90;;
5428;SDS011;2737;52.386;9.980;2023-04-08T13:47:16;25.13;;;12.20;;
5428;SDS011;2737;52.386;9.980;2023-04-08T13:49:43;23.87;;;12.20;;
5428;SDS011;2737;52.386;9.980;2023-04-08T13:52:10;21.93;;;11.07;;
5428;SDS011;2737;52.386;9.980;2023-04-08T13:54:37;26.20;;;12.00;;
5428;SDS011;2737;52.386;9.980;2023-04-08T13:57:04;24.20;;;11.60;;
5428;SDS011;2737;52.386;9.980;2023-04-08T13:59:32;22.43;;;10.87;;
5428;SDS011;2737;52.386;9.980;2023-04-08T14:01:59;24.70;;;11.50;;
5428;SDS011;2737;52.386;9.980;2023-04-08T14:04:26;32.70;;;11.97;;
5428;SDS011;2737;52.386;9.980;2023-04-08T14:06:54;20.63;;;11.50;;
5428;SDS011;2737;52.386;9.980;2023-04-08T14:09:22;24.70;;;12.23;;
5428;SDS011;2737;52.386;9.980;2023-04-08T14:11:49;23.07;;;11.57;;
5428;SDS011;2737;52.386;9.980;2023-04-08T14:14:16;25.50;;;12.87;;
5428;SDS011;2737;52.386;9.980;2023-04-08T14:16:44;22.30;;;12.20;;
5428;SDS011;2737;52.386;9.980;2023-04-08T14:19:12;30.70;;;13.40;;
5428;SDS011;2737;52.386;9.980;2023-04-08T14:21:40;25.20;;;13.57;;
5428;SDS011;2737;52.386;9.980;2023-04-08T14:24:07;27.20;;;13.00;;
5428;SDS011;2737;52.386;9.980;2023-04-08T14:26:34;25.30;;;12.20;;
5428;SDS011;2737;52.386;9.980;2023-04-08T14:29:02;26.40;;;12.50;;
5428;SDS011;2737;52.386;9.980;2023-04-08T14:31:29;22.00;;;12.23;;
5428;SDS011;2737;52.386;9.980;2023-04-08T14:33:58;23.90;;;11.90;;
5428;SDS011;2737;52.386;9.980;2023-04-08T14:36:25;25.00;;;12.20;;
5428;SDS011;2737;52.386;9.980;2023-04-08T14:38:54;24.63;;;12.70;;
5428;SDS011;2737;52.386;9.980;2023-04-08T14:41:21;27.33;;;13.37;;
5428;SDS011;2737;52.386;9.980;2023-04-08T14:43:50;24.90;;;13.07;;
5428;SDS011;2737;52.386;9.980;2023-04-08T14:46:17;24.53;;;11.70;;
5428;SDS011;2737;52.386;9.980;2023-04-08T14:48:44;27.23;;;12.87;;
5428;SDS011;2737;52.386;9.980;2023-04-08T14:51:12;22.63;;;11.23;;
5428;SDS011;2737;52.386;9.980;2023-04-08T14:53:40;24.10;;;11.60;;
5428;SDS011;2737;52.386;9.980;2023-04-08T14:56:07;25.10;;;12.17;;
5428;SDS011;2737;52.386;9.980;2023-04-08T14:58:34;25.93;;;11.53;;
5428;SDS011;2737;52.386;9.980;2023-04-08T15:01:01;29.27;;;12.13;;
5428;SDS011;2737;52.386;9.980;2023-04-08T15:03:28;22.03;;;10.57;;
5428;SDS011;2737;52.386;9.980;2023-04-08T15:05:56;28.07;;;12.77;;
5428;SDS011;2737;52.386;9.980;2023-04-08T15:08:25;24.83;;;11.60;;